sensor_id;sensor_type;location;lat;lon;timestamp;pressure;altitude;pressure_sealevel;temperature;humidity
38786;BME280;24535;45.508;12.252;2023-08-31T00:00:15;100871.25;;;23.29;59.33
38786;BME280;24535;45.508;12.252;2023-08-31T00:02:40;100867.72;;;23.28;59.55
38786;BME280;24535;45.508;12.252;2023-08-31T00:05:06;100863.16;;;23.29;59.01
38786;BME280;24535;45.508;12.252;2023-08-31T00:07:31;100866.88;;;23.28;59.16
38786;BME280;24535;45.508;12.252;2023-08-31T00:09:57;100874.13;;;23.27;59.03
38786;BME280;24535;45.508;12.252;2023-08-31T00:12:23;100874.13;;;23.27;59.11
38786;BME280;24535;45.508;12.252;2023-08-31T00:14:49;100872.47;;;23.26;59.04
38786;BME280;24535;45.508;12.252;2023-08-31T00:17:15;100877.16;;;23.24;58.98
38786;BME280;24535;45.508;12.252;2023-08-31T00:19:40;100872.81;;;23.23;59.31
38786;BME280;24535;45.508;12.252;2023-08-31T00:22:05;100877.00;;;23.26;59.30
38786;BME280;24535;45.508;12.252;2023-08-31T00:24:30;100887.91;;;23.24;59.26
38786;BME280;24535;45.508;12.252;2023-08-31T00:26:58;100880.03;;;23.23;59.38
38786;BME280;24535;45.508;12.252;2023-08-31T00:29:23;100881.91;;;23.22;59.35
38786;BME280;24535;45.508;12.252;2023-08-31T00:31:50;100880.03;;;23.23;59.45
38786;BME280;24535;45.508;12.252;2023-08-31T00:34:16;100881.72;;;23.24;59.49
38786;BME280;24535;45.508;12.252;2023-08-31T00:36:42;100879.84;;;23.24;59.51
38786;BME280;24535;45.508;12.252;2023-08-31T00:39:07;100873.66;;;23.24;59.67
38786;BME280;24535;45.508;12.252;2023-08-31T00:41:35;100883.56;;;23.23;59.54
38786;BME280;24535;45.508;12.252;2023-08-31T00:44:01;100887.75;;;23.26;59.94
38786;BME280;24535;45.508;12.252;2023-08-31T00:46:27;100884.03;;;23.27;59.76
38786;BME280;24535;45.508;12.252;2023-08-31T00:48:53;100886.72;;;23.27;59.94
38786;BME280;24535;45.508;12.252;2023-08-31T00:51:18;100889.22;;;23.28;59.92
38786;BME280;24535;45.508;12.252;2023-08-31T00:53:44;100888.41;;;23.28;59.53
38786;BME280;24535;45.508;12.252;2023-08-31T00:56:09;100890.88;;;23.29;59.24
38786;BME280;24535;45.508;12.252;2023-08-31T00:58:34;100890.88;;;23.29;59.06
38786;BME280;24535;45.508;12.252;2023-08-31T01:01:06;100893.41;;;23.31;59.06
38786;BME280;24535;45.508;12.252;2023-08-31T01:11:22;100894.44;;;23.30;59.88
38786;BME280;24535;45.508;12.252;2023-08-31T01:13:53;100904.16;;;23.31;59.95
38786;BME280;24535;45.508;12.252;2023-08-31T01:16:22;100896.09;;;23.31;60.08
38786;BME280;24535;45.508;12.252;2023-08-31T01:18:49;100894.25;;;23.31;59.68
38786;BME280;24535;45.508;12.252;2023-08-31T01:21:36;100896.94;;;23.31;60.30
38786;BME280;24535;45.508;12.252;2023-08-31T01:24:02;100912.22;;;23.31;59.96
38786;BME280;24535;45.508;12.252;2023-08-31T01:26:29;100905.34;;;23.28;59.89
38786;BME280;24535;45.508;12.252;2023-08-31T01:28:55;100902.88;;;23.27;60.26
38786;BME280;24535;45.508;12.252;2023-08-31T01:31:21;100909.06;;;23.27;60.46
38786;BME280;24535;45.508;12.252;2023-08-31T01:33:47;100918.16;;;23.26;60.42
38786;BME280;24535;45.508;12.252;2023-08-31T01:36:29;100914.94;;;23.31;60.12
38786;BME280;24535;45.508;12.252;2023-08-31T01:38:57;100911.88;;;23.34;59.98
38786;BME280;24535;45.508;12.252;2023-08-31T01:41:23;100916.59;;;23.32;59.93
38786;BME280;24535;45.508;12.252;2023-08-31T01:43:51;100920.31;;;23.31;60.21
38786;BME280;24535;45.508;12.252;2023-08-31T01:46:17;100920.66;;;23.28;60.11
38786;BME280;24535;45.508;12.252;2023-08-31T01:48:43;100923.53;;;23.26;60.03
38786;BME280;24535;45.508;12.252;2023-08-31T01:51:09;100926.22;;;23.26;60.38
38786;BME280;24535;45.508;12.252;2023-08-31T01:53:34;100933.28;;;23.27;60.33
38786;BME280;24535;45.508;12.252;2023-08-31T01:56:00;100934.28;;;23.26;60.01
38786;BME280;24535;45.508;12.252;2023-08-31T01:58:25;100932.59;;;23.25;60.27
38786;BME280;24535;45.508;12.252;2023-08-31T02:00:50;100933.81;;;23.23;60.33
38786;BME280;24535;45.508;12.252;2023-08-31T02:03:15;100937.69;;;23.20;60.09
38786;BME280;24535;45.508;12.252;2023-08-31T02:05:41;100940.56;;;23.18;60.08
38786;BME280;24535;45.508;12.252;2023-08-31T02:08:06;100943.41;;;23.17;60.43
38786;BME280;24535;45.508;12.252;2023-08-31T02:10:31;100941.75;;;23.16;60.66
38786;BME280;24535;45.508;12.252;2023-08-31T02:12:57;100944.78;;;23.13;60.66
38786;BME280;24535;45.508;12.252;2023-08-31T02:15:22;100946.50;;;23.14;60.85
38786;BME280;24535;45.508;12.252;2023-08-31T02:17:47;100947.13;;;23.16;60.92
38786;BME280;24535;45.508;12.252;2023-08-31T02:20:13;100955.19;;;23.16;60.83
38786;BME280;24535;45.508;12.252;2023-08-31T02:22:39;100948.16;;;23.15;61.03
38786;BME280;24535;45.508;12.252;2023-08-31T02:25:04;100951.88;;;23.14;60.55
38786;BME280;24535;45.508;12.252;2023-08-31T02:27:30;100960.09;;;23.12;60.71
38786;BME280;24535;45.508;12.252;2023-08-31T02:29:55;100949.53;;;23.11;60.38
38786;BME280;24535;45.508;12.252;2023-08-31T02:32:21;100957.94;;;23.08;60.21
38786;BME280;24535;45.508;12.252;2023-08-31T02:34:46;100955.44;;;23.06;60.39
38786;BME280;24535;45.508;12.252;2023-08-31T02:37:11;100953.28;;;23.02;60.33
38786;BME280;24535;45.508;12.252;2023-08-31T02:39:37;100951.16;;;22.97;60.30
38786;BME280;24535;45.508;12.252;2023-08-31T02:42:02;100952.31;;;22.94;60.36
38786;BME280;24535;45.508;12.252;2023-08-31T02:44:27;100951.84;;;22.91;60.70
38786;BME280;24535;45.508;12.252;2023-08-31T02:46:53;100958.38;;;22.88;60.50
38786;BME280;24535;45.508;12.252;2023-08-31T02:49:18;100954.34;;;22.84;60.65
38786;BME280;24535;45.508;12.252;2023-08-31T02:51:43;100955.56;;;22.82;60.67
38786;BME280;24535;45.508;12.252;2023-08-31T02:54:08;100962.97;;;22.80;60.70
38786;BME280;24535;45.508;12.252;2023-08-31T02:56:34;100957.78;;;22.78;60.89
38786;BME280;24535;45.508;12.252;2023-08-31T02:58:59;100960.16;;;22.73;60.37
38786;BME280;24535;45.508;12.252;2023-08-31T03:01:24;100965.88;;;22.70;60.58
38786;BME280;24535;45.508;12.252;2023-08-31T03:03:49;100965.88;;;22.70;61.04
38786;BME280;24535;45.508;12.252;2023-08-31T03:06:15;100965.19;;;22.68;60.77
38786;BME280;24535;45.508;12.252;2023-08-31T03:08:40;100962.03;;;22.64;60.48
38786;BME280;24535;45.508;12.252;2023-08-31T03:11:06;100967.78;;;22.61;60.62
38786;BME280;24535;45.508;12.252;2023-08-31T03:13:32;100972.47;;;22.59;60.46
38786;BME280;24535;45.508;12.252;2023-08-31T03:15:57;100968.31;;;22.57;60.53
38786;BME280;24535;45.508;12.252;2023-08-31T03:18:23;100970.50;;;22.53;60.60
38786;BME280;24535;45.508;12.252;2023-08-31T03:20:48;100972.50;;;22.51;60.59
38786;BME280;24535;45.508;12.252;2023-08-31T03:23:13;100972.50;;;22.51;60.61
38786;BME280;24535;45.508;12.252;2023-08-31T03:25:39;100982.22;;;22.52;60.79
38786;BME280;24535;45.508;12.252;2023-08-31T03:28:04;100983.94;;;22.53;60.75
38786;BME280;24535;45.508;12.252;2023-08-31T03:30:29;100984.91;;;22.52;60.67
38786;BME280;24535;45.508;12.252;2023-08-31T03:32:55;100989.81;;;22.49;60.77
38786;BME280;24535;45.508;12.252;2023-08-31T03:35:20;100992.66;;;22.47;60.77
38786;BME280;24535;45.508;12.252;2023-08-31T03:37:51;100997.53;;;22.43;60.85
38786;BME280;24535;45.508;12.252;2023-08-31T03:40:16;100995.69;;;22.44;61.07
38786;BME280;24535;45.508;12.252;2023-08-31T03:42:42;100985.13;;;22.42;61.16
38786;BME280;24535;45.508;12.252;2023-08-31T03:45:07;100987.00;;;22.42;60.80
38786;BME280;24535;45.508;12.252;2023-08-31T03:47:32;100998.06;;;22.39;61.32
38786;BME280;24535;45.508;12.252;2023-08-31T03:49:58;101003.44;;;22.39;61.45
38786;BME280;24535;45.508;12.252;2023-08-31T03:52:23;101000.94;;;22.37;61.01
38786;BME280;24535;45.508;12.252;2023-08-31T03:54:49;100999.28;;;22.36;61.26
38786;BME280;24535;45.508;12.252;2023-08-31T03:57:14;101009.50;;;22.33;61.23
38786;BME280;24535;45.508;12.252;2023-08-31T03:59:40;101013.03;;;22.33;60.58
38786;BME280;24535;45.508;12.252;2023-08-31T04:02:05;101005.81;;;22.34;60.57
38786;BME280;24535;45.508;12.252;2023-08-31T04:04:31;101017.56;;;22.33;61.33
38786;BME280;24535;45.508;12.252;2023-08-31T04:06:57;101012.53;;;22.30;61.04
38786;BME280;24535;45.508;12.252;2023-08-31T04:09:22;101018.91;;;22.29;61.29
38786;BME280;24535;45.508;12.252;2023-08-31T04:11:48;101021.75;;;22.27;61.78
38786;BME280;24535;45.508;12.252;2023-08-31T04:14:13;101024.44;;;22.27;61.90
38786;BME280;24535;45.508;12.252;2023-08-31T04:16:39;101030.66;;;22.28;61.84
38786;BME280;24535;45.508;12.252;2023-08-31T04:19:04;101043.06;;;22.29;61.56
38786;BME280;24535;45.508;12.252;2023-08-31T04:21:29;101038.53;;;22.29;61.71
38786;BME280;24535;45.508;12.252;2023-08-31T04:23:54;101044.94;;;22.28;61.52
38786;BME280;24535;45.508;12.252;2023-08-31T04:26:20;101049.28;;;22.29;61.58
38786;BME280;24535;45.508;12.252;2023-08-31T04:28:45;101052.63;;;22.31;61.73
38786;BME280;24535;45.508;12.252;2023-08-31T04:31:11;101057.16;;;22.31;61.83
38786;BME280;24535;45.508;12.252;2023-08-31T04:33:36;101057.16;;;22.31;61.55
38786;BME280;24535;45.508;12.252;2023-08-31T04:36:02;101055.16;;;22.33;61.69
38786;BME280;24535;45.508;12.252;2023-08-31T04:38:28;101061.16;;;22.35;61.30
38786;BME280;24535;45.508;12.252;2023-08-31T04:40:54;101051.13;;;22.37;61.26
38786;BME280;24535;45.508;12.252;2023-08-31T04:43:19;101066.53;;;22.35;61.79
38786;BME280;24535;45.508;12.252;2023-08-31T04:45:44;101056.63;;;22.35;61.51
38786;BME280;24535;45.508;12.252;2023-08-31T04:48:10;101067.22;;;22.37;61.35
38786;BME280;24535;45.508;12.252;2023-08-31T04:50:35;101067.03;;;22.38;61.31
38786;BME280;24535;45.508;12.252;2023-08-31T04:53:00;101072.22;;;22.40;61.19
38786;BME280;24535;45.508;12.252;2023-08-31T04:55:25;101075.09;;;22.38;60.68
38786;BME280;24535;45.508;12.252;2023-08-31T04:57:51;101086.00;;;22.37;61.25
38786;BME280;24535;45.508;12.252;2023-08-31T05:00:16;101087.88;;;22.36;60.93
38786;BME280;24535;45.508;12.252;2023-08-31T05:02:41;101094.91;;;22.37;60.90
38786;BME280;24535;45.508;12.252;2023-08-31T05:05:08;101094.06;;;22.37;61.03
38786;BME280;24535;45.508;12.252;2023-08-31T05:07:33;101091.88;;;22.40;60.84
38786;BME280;24535;45.508;12.252;2023-08-31T05:09:59;101090.03;;;22.41;60.71
38786;BME280;24535;45.508;12.252;2023-08-31T05:12:24;101103.59;;;22.39;60.82
38786;BME280;24535;45.508;12.252;2023-08-31T05:14:49;101107.31;;;22.38;60.84
38786;BME280;24535;45.508;12.252;2023-08-31T05:17:14;101106.28;;;22.39;60.58
38786;BME280;24535;45.508;12.252;2023-08-31T05:19:40;101112.34;;;22.41;61.06
38786;BME280;24535;45.508;12.252;2023-08-31T05:22:05;101114.00;;;22.42;60.60
38786;BME280;24535;45.508;12.252;2023-08-31T05:24:30;101104.09;;;22.43;60.96
38786;BME280;24535;45.508;12.252;2023-08-31T05:26:56;101109.16;;;22.46;60.53
38786;BME280;24535;45.508;12.252;2023-08-31T05:29:21;101112.47;;;22.48;60.44
38786;BME280;24535;45.508;12.252;2023-08-31T05:31:46;101110.47;;;22.50;60.62
38786;BME280;24535;45.508;12.252;2023-08-31T05:34:15;101114.81;;;22.51;60.53
38786;BME280;24535;45.508;12.252;2023-08-31T05:36:41;101123.72;;;22.52;60.19
38786;BME280;24535;45.508;12.252;2023-08-31T05:39:06;101137.00;;;22.53;60.56
38786;BME280;24535;45.508;12.252;2023-08-31T05:41:31;101131.25;;;22.56;60.55
38786;BME280;24535;45.508;12.252;2023-08-31T05:43:56;101130.09;;;22.59;60.64
38786;BME280;24535;45.508;12.252;2023-08-31T05:46:22;101138.66;;;22.62;60.22
38786;BME280;24535;45.508;12.252;2023-08-31T05:48:47;101139.78;;;22.68;60.41
38786;BME280;24535;45.508;12.252;2023-08-31T05:51:13;101137.75;;;22.78;59.99
38786;BME280;24535;45.508;12.252;2023-08-31T05:53:38;101144.47;;;22.90;59.57
38786;BME280;24535;45.508;12.252;2023-08-31T05:56:03;101142.41;;;23.01;59.49
38786;BME280;24535;45.508;12.252;2023-08-31T05:58:32;101149.56;;;23.16;59.95
38786;BME280;24535;45.508;12.252;2023-08-31T06:00:58;101151.50;;;23.39;58.96
38786;BME280;24535;45.508;12.252;2023-08-31T06:03:24;101153.00;;;23.64;58.81
38786;BME280;24535;45.508;12.252;2023-08-31T06:05:50;101152.31;;;23.93;58.34
38786;BME280;24535;45.508;12.252;2023-08-31T06:08:15;101156.53;;;24.19;57.64
38786;BME280;24535;45.508;12.252;2023-08-31T06:10:40;101159.91;;;24.36;57.05
38786;BME280;24535;45.508;12.252;2023-08-31T06:13:05;101163.75;;;24.41;56.68
38786;BME280;24535;45.508;12.252;2023-08-31T06:15:31;101162.41;;;24.37;56.55
38786;BME280;24535;45.508;12.252;2023-08-31T06:17:56;101165.16;;;24.29;56.46
38786;BME280;24535;45.508;12.252;2023-08-31T06:20:21;101165.91;;;24.23;56.46
38786;BME280;24535;45.508;12.252;2023-08-31T06:22:47;101173.38;;;24.13;56.83
38786;BME280;24535;45.508;12.252;2023-08-31T06:25:13;101173.25;;;24.06;56.95
38786;BME280;24535;45.508;12.252;2023-08-31T06:46:59;101184.16;;;24.13;58.05
38786;BME280;24535;45.508;12.252;2023-08-31T06:49:25;101192.03;;;24.14;58.05
38786;BME280;24535;45.508;12.252;2023-08-31T06:51:50;101202.28;;;24.19;58.11
38786;BME280;24535;45.508;12.252;2023-08-31T06:54:15;101199.88;;;24.24;57.93
38786;BME280;24535;45.508;12.252;2023-08-31T06:56:41;101200.19;;;24.29;57.57
38786;BME280;24535;45.508;12.252;2023-08-31T06:59:07;101204.00;;;24.35;57.70
38786;BME280;24535;45.508;12.252;2023-08-31T07:01:32;101205.34;;;24.39;57.31
38786;BME280;24535;45.508;12.252;2023-08-31T07:03:57;101205.44;;;24.46;57.05
38786;BME280;24535;45.508;12.252;2023-08-31T07:06:23;101208.44;;;24.51;56.70
38786;BME280;24535;45.508;12.252;2023-08-31T07:08:48;101208.06;;;24.54;56.67
38786;BME280;24535;45.508;12.252;2023-08-31T07:11:14;101210.41;;;24.57;56.69
38786;BME280;24535;45.508;12.252;2023-08-31T07:13:40;101212.75;;;24.60;56.06
38786;BME280;24535;45.508;12.252;2023-08-31T07:16:05;101221.09;;;24.65;56.27
38786;BME280;24535;45.508;12.252;2023-08-31T07:18:31;101217.66;;;24.71;56.62
38786;BME280;24535;45.508;12.252;2023-08-31T07:20:56;101225.03;;;24.77;56.05
38786;BME280;24535;45.508;12.252;2023-08-31T07:23:22;101227.84;;;24.84;55.73
38786;BME280;24535;45.508;12.252;2023-08-31T07:25:47;101221.88;;;24.88;56.03
38786;BME280;24535;45.508;12.252;2023-08-31T07:28:13;101227.00;;;24.98;55.79
38786;BME280;24535;45.508;12.252;2023-08-31T07:30:38;101230.28;;;25.08;55.72
38786;BME280;24535;45.508;12.252;2023-08-31T07:33:03;101233.75;;;25.17;55.79
38786;BME280;24535;45.508;12.252;2023-08-31T07:35:29;101229.91;;;25.26;55.46
38786;BME280;24535;45.508;12.252;2023-08-31T07:37:55;101240.97;;;25.31;55.06
38786;BME280;24535;45.508;12.252;2023-08-31T07:40:20;101240.41;;;25.36;54.87
38786;BME280;24535;45.508;12.252;2023-08-31T07:42:45;101250.66;;;25.40;54.09
38786;BME280;24535;45.508;12.252;2023-08-31T07:45:10;101242.16;;;25.44;54.69
38786;BME280;24535;45.508;12.252;2023-08-31T07:47:36;101250.56;;;25.49;54.81
38786;BME280;24535;45.508;12.252;2023-08-31T07:59:10;101266.59;;;25.86;54.32
38786;BME280;24535;45.508;12.252;2023-08-31T08:01:35;101263.69;;;26.03;53.97
38786;BME280;24535;45.508;12.252;2023-08-31T08:04:00;101272.19;;;26.21;53.40
38786;BME280;24535;45.508;12.252;2023-08-31T08:06:25;101275.94;;;26.42;53.26
38786;BME280;24535;45.508;12.252;2023-08-31T08:08:51;101288.41;;;26.64;53.33
38786;BME280;24535;45.508;12.252;2023-08-31T08:11:16;101291.94;;;26.86;52.70
38786;BME280;24535;45.508;12.252;2023-08-31T08:13:41;101297.47;;;27.06;50.89
38786;BME280;24535;45.508;12.252;2023-08-31T08:16:07;101302.59;;;27.22;50.65
38786;BME280;24535;45.508;12.252;2023-08-31T08:18:34;101296.84;;;27.32;50.66
38786;BME280;24535;45.508;12.252;2023-08-31T08:28:44;101297.53;;;27.82;50.18
38786;BME280;24535;45.508;12.252;2023-08-31T08:31:11;101300.09;;;27.97;49.24
38786;BME280;24535;45.508;12.252;2023-08-31T08:33:36;101296.16;;;28.06;49.07
38786;BME280;24535;45.508;12.252;2023-08-31T08:36:01;101298.66;;;28.14;49.33
38786;BME280;24535;45.508;12.252;2023-08-31T08:38:27;101296.41;;;28.24;49.48
38786;BME280;24535;45.508;12.252;2023-08-31T08:40:52;101299.59;;;28.41;49.50
38786;BME280;24535;45.508;12.252;2023-08-31T08:43:20;101300.22;;;28.63;48.46
38786;BME280;24535;45.508;12.252;2023-08-31T08:45:46;101306.50;;;28.83;48.15
38786;BME280;24535;45.508;12.252;2023-08-31T08:48:12;101310.50;;;29.01;48.44
38786;BME280;24535;45.508;12.252;2023-08-31T08:50:39;101313.59;;;29.11;47.85
38786;BME280;24535;45.508;12.252;2023-08-31T08:53:05;101309.63;;;29.14;47.30
38786;BME280;24535;45.508;12.252;2023-08-31T08:55:31;101314.00;;;29.15;47.19
38786;BME280;24535;45.508;12.252;2023-08-31T08:57:58;101312.78;;;29.11;46.52
38786;BME280;24535;45.508;12.252;2023-08-31T09:00:24;101313.19;;;29.07;46.82
38786;BME280;24535;45.508;12.252;2023-08-31T09:02:50;101318.63;;;29.01;47.06
38786;BME280;24535;45.508;12.252;2023-08-31T09:05:15;101318.59;;;28.94;46.77
38786;BME280;24535;45.508;12.252;2023-08-31T09:10:24;101331.94;;;28.76;47.26
38786;BME280;24535;45.508;12.252;2023-08-31T09:12:58;101325.28;;;28.65;46.84
38786;BME280;24535;45.508;12.252;2023-08-31T09:15:24;101319.00;;;28.58;47.66
38786;BME280;24535;45.508;12.252;2023-08-31T09:17:51;101325.91;;;28.61;48.08
38786;BME280;24535;45.508;12.252;2023-08-31T09:20:16;101316.09;;;28.66;48.04
38786;BME280;24535;45.508;12.252;2023-08-31T09:22:44;101318.63;;;28.81;47.84
38786;BME280;24535;45.508;12.252;2023-08-31T09:25:10;101321.13;;;29.02;47.75
38786;BME280;24535;45.508;12.252;2023-08-31T09:27:38;101321.53;;;29.26;47.92
38786;BME280;24535;45.508;12.252;2023-08-31T09:30:06;101320.59;;;29.52;46.69
38786;BME280;24535;45.508;12.252;2023-08-31T09:32:31;101322.69;;;29.70;46.41
38786;BME280;24535;45.508;12.252;2023-08-31T09:34:58;101320.75;;;29.84;46.60
38786;BME280;24535;45.508;12.252;2023-08-31T09:37:27;101320.91;;;29.95;46.04
38786;BME280;24535;45.508;12.252;2023-08-31T09:39:53;101315.81;;;30.05;45.56
38786;BME280;24535;45.508;12.252;2023-08-31T09:42:18;101325.19;;;30.16;45.81
38786;BME280;24535;45.508;12.252;2023-08-31T09:44:44;101324.13;;;30.24;45.44
38786;BME280;24535;45.508;12.252;2023-08-31T09:49:45;101324.13;;;30.24;45.11
38786;BME280;24535;45.508;12.252;2023-08-31T09:52:10;101323.53;;;30.15;45.04
38786;BME280;24535;45.508;12.252;2023-08-31T09:54:36;101325.25;;;30.03;45.11
38786;BME280;24535;45.508;12.252;2023-08-31T09:57:02;101340.56;;;29.91;44.66
38786;BME280;24535;45.508;12.252;2023-08-31T09:59:28;101342.94;;;29.74;46.06
38786;BME280;24535;45.508;12.252;2023-08-31T10:04:21;101347.34;;;29.48;45.58
38786;BME280;24535;45.508;12.252;2023-08-31T10:06:46;101337.34;;;29.36;45.16
38786;BME280;24535;45.508;12.252;2023-08-31T10:09:12;101340.53;;;29.26;46.00
38786;BME280;24535;45.508;12.252;2023-08-31T10:11:38;101344.91;;;29.20;46.07
38786;BME280;24535;45.508;12.252;2023-08-31T10:14:05;101344.91;;;29.14;46.13
38786;BME280;24535;45.508;12.252;2023-08-31T10:16:31;101347.63;;;29.07;46.37
38786;BME280;24535;45.508;12.252;2023-08-31T10:18:57;101347.84;;;28.99;45.74
38786;BME280;24535;45.508;12.252;2023-08-31T10:21:22;101346.97;;;28.92;46.23
38786;BME280;24535;45.508;12.252;2023-08-31T10:23:48;101348.88;;;28.85;46.48
38786;BME280;24535;45.508;12.252;2023-08-31T10:26:23;101344.47;;;28.77;46.47
38786;BME280;24535;45.508;12.252;2023-08-31T10:28:49;101338.63;;;28.67;46.97
38786;BME280;24535;45.508;12.252;2023-08-31T10:31:17;101341.13;;;28.62;46.54
38786;BME280;24535;45.508;12.252;2023-08-31T10:33:44;101343.41;;;28.58;46.68
38786;BME280;24535;45.508;12.252;2023-08-31T10:36:11;101353.63;;;28.56;47.24
38786;BME280;24535;45.508;12.252;2023-08-31T10:38:37;101345.91;;;28.53;46.66
38786;BME280;24535;45.508;12.252;2023-08-31T10:43:43;101355.06;;;28.52;46.99
38786;BME280;24535;45.508;12.252;2023-08-31T10:48:57;101355.28;;;28.50;47.19
38786;BME280;24535;45.508;12.252;2023-08-31T10:51:24;101353.63;;;28.49;47.58
38786;BME280;24535;45.508;12.252;2023-08-31T10:53:49;101351.09;;;28.48;47.40
38786;BME280;24535;45.508;12.252;2023-08-31T10:56:15;101359.22;;;28.48;47.38
38786;BME280;24535;45.508;12.252;2023-08-31T11:01:12;101351.97;;;28.48;47.61
38786;BME280;24535;45.508;12.252;2023-08-31T11:14:51;101359.41;;;28.40;47.75
38786;BME280;24535;45.508;12.252;2023-08-31T11:22:33;101373.41;;;28.37;47.81
38786;BME280;24535;45.508;12.252;2023-08-31T11:24:58;101366.25;;;28.35;48.06
38786;BME280;24535;45.508;12.252;2023-08-31T11:27:24;101358.56;;;28.32;47.99
38786;BME280;24535;45.508;12.252;2023-08-31T11:29:50;101364.38;;;28.29;48.52
38786;BME280;24535;45.508;12.252;2023-08-31T11:32:15;101362.06;;;28.26;48.25
38786;BME280;24535;45.508;12.252;2023-08-31T11:34:41;101347.91;;;28.24;48.19
38786;BME280;24535;45.508;12.252;2023-08-31T11:37:09;101359.75;;;28.23;48.45
38786;BME280;24535;45.508;12.252;2023-08-31T11:39:36;101366.44;;;28.21;48.40
38786;BME280;24535;45.508;12.252;2023-08-31T11:42:02;101367.25;;;28.15;48.37
38786;BME280;24535;45.508;12.252;2023-08-31T11:47:02;101354.50;;;28.02;48.58
38786;BME280;24535;45.508;12.252;2023-08-31T11:49:28;101362.19;;;27.98;48.76
38786;BME280;24535;45.508;12.252;2023-08-31T11:51:54;101364.47;;;27.95;49.11
38786;BME280;24535;45.508;12.252;2023-08-31T11:54:19;101367.16;;;27.95;49.27
38786;BME280;24535;45.508;12.252;2023-08-31T11:56:45;101372.59;;;27.95;49.19
38786;BME280;24535;45.508;12.252;2023-08-31T11:59:14;101369.25;;;27.93;49.00
38786;BME280;24535;45.508;12.252;2023-08-31T12:01:41;101366.97;;;27.96;49.29
38786;BME280;24535;45.508;12.252;2023-08-31T12:04:10;101366.16;;;27.96;49.26
38786;BME280;24535;45.508;12.252;2023-08-31T12:06:36;101353.41;;;27.90;49.32
38786;BME280;24535;45.508;12.252;2023-08-31T12:09:02;101354.63;;;27.87;49.64
38786;BME280;24535;45.508;12.252;2023-08-31T12:11:29;101352.13;;;27.85;49.85
38786;BME280;24535;45.508;12.252;2023-08-31T12:13:55;101352.34;;;27.84;49.55
38786;BME280;24535;45.508;12.252;2023-08-31T12:18:59;101359.19;;;27.80;49.66
38786;BME280;24535;45.508;12.252;2023-08-31T12:21:25;101367.75;;;27.83;49.89
38786;BME280;24535;45.508;12.252;2023-08-31T12:23:50;101368.78;;;27.82;49.92
38786;BME280;24535;45.508;12.252;2023-08-31T12:26:15;101365.06;;;27.83;49.75
38786;BME280;24535;45.508;12.252;2023-08-31T12:28:41;101357.09;;;27.82;49.62
38786;BME280;24535;45.508;12.252;2023-08-31T12:31:06;101356.66;;;27.78;49.36
38786;BME280;24535;45.508;12.252;2023-08-31T12:33:31;101348.97;;;27.75;49.31
38786;BME280;24535;45.508;12.252;2023-08-31T12:35:56;101348.09;;;27.75;49.56
38786;BME280;24535;45.508;12.252;2023-08-31T12:38:22;101343.34;;;27.77;49.52
38786;BME280;24535;45.508;12.252;2023-08-31T12:40:47;101352.50;;;27.76;49.49
38786;BME280;24535;45.508;12.252;2023-08-31T12:43:18;101350.81;;;27.75;49.63
38786;BME280;24535;45.508;12.252;2023-08-31T12:48:31;101334.00;;;27.79;49.60
38786;BME280;24535;45.508;12.252;2023-08-31T12:50:56;101329.41;;;27.80;49.72
38786;BME280;24535;45.508;12.252;2023-08-31T12:53:22;101335.84;;;27.79;49.59
38786;BME280;24535;45.508;12.252;2023-08-31T12:55:48;101332.94;;;27.80;49.83
38786;BME280;24535;45.508;12.252;2023-08-31T12:58:14;101328.16;;;27.82;49.61
38786;BME280;24535;45.508;12.252;2023-08-31T13:00:40;101326.28;;;27.83;49.71
38786;BME280;24535;45.508;12.252;2023-08-31T13:03:05;101335.03;;;27.85;49.72
38786;BME280;24535;45.508;12.252;2023-08-31T13:05:32;101330.47;;;27.85;49.48
38786;BME280;24535;45.508;12.252;2023-08-31T13:07:57;101331.28;;;27.86;49.43
38786;BME280;24535;45.508;12.252;2023-08-31T13:10:22;101330.47;;;27.85;49.61
38786;BME280;24535;45.508;12.252;2023-08-31T13:12:48;101337.09;;;27.83;49.34
38786;BME280;24535;45.508;12.252;2023-08-31T13:15:14;101338.97;;;27.82;49.53
38786;BME280;24535;45.508;12.252;2023-08-31T13:17:39;101341.69;;;27.82;49.78
38786;BME280;24535;45.508;12.252;2023-08-31T13:20:05;101334.41;;;27.83;49.39
38786;BME280;24535;45.508;12.252;2023-08-31T13:22:30;101331.06;;;27.81;49.65
38786;BME280;24535;45.508;12.252;2023-08-31T13:24:56;101328.56;;;27.79;49.76
38786;BME280;24535;45.508;12.252;2023-08-31T13:27:21;101326.88;;;27.78;49.72
38786;BME280;24535;45.508;12.252;2023-08-31T13:29:47;101331.28;;;27.79;49.92
38786;BME280;24535;45.508;12.252;2023-08-31T13:32:12;101331.28;;;27.79;49.76
38786;BME280;24535;45.508;12.252;2023-08-31T13:34:38;101324.59;;;27.82;49.77
38786;BME280;24535;45.508;12.252;2023-08-31T13:37:03;101320.03;;;27.82;49.91
38786;BME280;24535;45.508;12.252;2023-08-31T13:39:29;101320.66;;;27.84;49.75
38786;BME280;24535;45.508;12.252;2023-08-31T13:41:55;101316.31;;;27.83;50.04
38786;BME280;24535;45.508;12.252;2023-08-31T13:44:20;101315.25;;;27.84;49.89
38786;BME280;24535;45.508;12.252;2023-08-31T13:46:46;101316.09;;;27.85;49.90
38786;BME280;24535;45.508;12.252;2023-08-31T13:49:12;101319.00;;;27.83;49.82
38786;BME280;24535;45.508;12.252;2023-08-31T13:51:37;101307.97;;;27.85;49.74
38786;BME280;24535;45.508;12.252;2023-08-31T13:54:03;101306.91;;;27.86;49.86
38786;BME280;24535;45.508;12.252;2023-08-31T13:56:32;101310.66;;;27.85;50.04